sensor_id;sensor_type;location;lat;lon;timestamp;pressure;altitude;pressure_sealevel;temperature;humidity
14612;BME280;7392;52.078;11.650;2023-12-20T00:01:16;100345.06;;;4.98;100.00
14612;BME280;7392;52.078;11.650;2023-12-20T00:03:44;100347.69;;;4.98;100.00
14612;BME280;7392;52.078;11.650;2023-12-20T00:06:12;100346.81;;;4.98;100.00
14612;BME280;7392;52.078;11.650;2023-12-20T00:08:40;100349.41;;;4.96;100.00
14612;BME280;7392;52.078;11.650;2023-12-20T00:11:07;100344.16;;;4.96;100.00
14612;BME280;7392;52.078;11.650;2023-12-20T00:13:35;100343.25;;;4.94;100.00
14612;BME280;7392;52.078;11.650;2023-12-20T00:16:05;100337.09;;;4.95;100.00
14612;BME280;7392;52.078;11.650;2023-12-20T00:18:33;100333.56;;;4.93;100.00
14612;BME280;7392;52.078;11.650;2023-12-20T00:21:01;100323.94;;;4.92;100.00
14612;BME280;7392;52.078;11.650;2023-12-20T00:23:29;100323.94;;;4.92;100.00
14612;BME280;7392;52.078;11.650;2023-12-20T00:25:57;100320.38;;;4.89;100.00
14612;BME280;7392;52.078;11.650;2023-12-20T00:28:25;100317.75;;;4.89;100.00
14612;BME280;7392;52.078;11.650;2023-12-20T00:30:53;100321.25;;;4.89;100.00
14612;BME280;7392;52.078;11.650;2023-12-20T00:33:22;100316.81;;;4.86;100.00
14612;BME280;7392;52.078;11.650;2023-12-20T00:35:50;100320.38;;;4.90;100.00
14612;BME280;7392;52.078;11.650;2023-12-20T00:38:18;100330.00;;;4.88;100.00
14612;BME280;7392;52.078;11.650;2023-12-20T00:40:46;100323.84;;;4.87;100.00
14612;BME280;7392;52.078;11.650;2023-12-20T00:43:14;100312.44;;;4.87;100.00
14612;BME280;7392;52.078;11.650;2023-12-20T00:45:42;100311.53;;;4.86;100.00
14612;BME280;7392;52.078;11.650;2023-12-20T00:48:10;100305.38;;;4.84;100.00
14612;BME280;7392;52.078;11.650;2023-12-20T00:50:39;100308.91;;;4.86;100.00
14612;BME280;7392;52.078;11.650;2023-12-20T00:53:07;100314.16;;;4.85;100.00
14612;BME280;7392;52.078;11.650;2023-12-20T00:55:35;100315.03;;;4.84;100.00
14612;BME280;7392;52.078;11.650;2023-12-20T00:58:03;100308.91;;;4.83;100.00
14612;BME280;7392;52.078;11.650;2023-12-20T01:00:31;100307.13;;;4.82;100.00
14612;BME280;7392;52.078;11.650;2023-12-20T01:02:58;100309.75;;;4.82;100.00
14612;BME280;7392;52.078;11.650;2023-12-20T01:05:26;100310.59;;;4.81;100.00
14612;BME280;7392;52.078;11.650;2023-12-20T01:07:55;100310.59;;;4.81;100.00
14612;BME280;7392;52.078;11.650;2023-12-20T01:10:23;100302.69;;;4.80;100.00
14612;BME280;7392;52.078;11.650;2023-12-20T01:12:54;100315.84;;;4.78;100.00
14612;BME280;7392;52.078;11.650;2023-12-20T01:15:22;100306.19;;;4.79;100.00
14612;BME280;7392;52.078;11.650;2023-12-20T01:17:50;100314.09;;;4.79;100.00
14612;BME280;7392;52.078;11.650;2023-12-20T01:20:18;100312.34;;;4.81;100.00
14612;BME280;7392;52.078;11.650;2023-12-20T01:22:46;100329.94;;;4.82;100.00
14612;BME280;7392;52.078;11.650;2023-12-20T01:25:16;100324.63;;;4.80;100.00
14612;BME280;7392;52.078;11.650;2023-12-20T01:27:44;100317.63;;;4.81;100.00
14612;BME280;7392;52.078;11.650;2023-12-20T01:30:12;100309.75;;;4.82;100.00
14612;BME280;7392;52.078;11.650;2023-12-20T01:32:40;100304.47;;;4.81;100.00
14612;BME280;7392;52.078;11.650;2023-12-20T01:35:08;100310.59;;;4.81;100.00
14612;BME280;7392;52.078;11.650;2023-12-20T01:37:36;100306.25;;;4.83;100.00
14612;BME280;7392;52.078;11.650;2023-12-20T01:40:05;100307.19;;;4.87;100.00
14612;BME280;7392;52.078;11.650;2023-12-20T01:42:34;100301.06;;;4.90;100.00
14612;BME280;7392;52.078;11.650;2023-12-20T01:45:03;100308.09;;;4.89;100.00
14612;BME280;7392;52.078;11.650;2023-12-20T01:51:40;100309.09;;;4.97;100.00
14612;BME280;7392;52.078;11.650;2023-12-20T01:54:17;100313.50;;;5.00;100.00
14612;BME280;7392;52.078;11.650;2023-12-20T01:56:51;100299.47;;;5.01;100.00
14612;BME280;7392;52.078;11.650;2023-12-20T01:59:25;100312.69;;;5.05;100.00
14612;BME280;7392;52.078;11.650;2023-12-20T02:02:28;100308.28;;;5.03;100.00
14612;BME280;7392;52.078;11.650;2023-12-20T02:05:03;100302.16;;;5.05;100.00
14612;BME280;7392;52.078;11.650;2023-12-20T02:07:43;100306.59;;;5.08;100.00
14612;BME280;7392;52.078;11.650;2023-12-20T02:10:19;100311.84;;;5.08;100.00
14612;BME280;7392;52.078;11.650;2023-12-20T02:12:57;100313.63;;;5.11;100.00
14612;BME280;7392;52.078;11.650;2023-12-20T02:15:37;100315.38;;;5.10;100.00
14612;BME280;7392;52.078;11.650;2023-12-20T02:18:12;100318.88;;;5.08;100.00
14612;BME280;7392;52.078;11.650;2023-12-20T02:20:42;100312.69;;;5.05;100.00
14612;BME280;7392;52.078;11.650;2023-12-20T02:23:11;100306.50;;;5.02;100.00
14612;BME280;7392;52.078;11.650;2023-12-20T02:25:39;100302.94;;;4.98;100.00
14612;BME280;7392;52.078;11.650;2023-12-20T02:28:07;100315.19;;;4.96;100.00
14612;BME280;7392;52.078;11.650;2023-12-20T02:30:35;100307.28;;;4.95;100.00
14612;BME280;7392;52.078;11.650;2023-12-20T02:33:03;100306.38;;;4.93;100.00
14612;BME280;7392;52.078;11.650;2023-12-20T02:35:36;100317.75;;;4.89;100.00
14612;BME280;7392;52.078;11.650;2023-12-20T02:38:10;100317.75;;;4.89;100.00
14612;BME280;7392;52.078;11.650;2023-12-20T02:40:39;100316.81;;;4.86;100.00
14612;BME280;7392;52.078;11.650;2023-12-20T02:43:16;100325.63;;;4.87;100.00
14612;BME280;7392;52.078;11.650;2023-12-20T02:45:44;100319.44;;;4.86;100.00
14612;BME280;7392;52.078;11.650;2023-12-20T02:48:12;100326.47;;;4.86;100.00
14612;BME280;7392;52.078;11.650;2023-12-20T02:50:40;100317.66;;;4.84;100.00
14612;BME280;7392;52.078;11.650;2023-12-20T02:53:08;100317.66;;;4.84;100.00
14612;BME280;7392;52.078;11.650;2023-12-20T02:55:37;100319.44;;;4.83;100.00
14612;BME280;7392;52.078;11.650;2023-12-20T02:58:05;100317.66;;;4.82;100.00
14612;BME280;7392;52.078;11.650;2023-12-20T03:00:32;100316.72;;;4.79;100.00
14612;BME280;7392;52.078;11.650;2023-12-20T03:03:00;100324.63;;;4.79;100.00
14612;BME280;7392;52.078;11.650;2023-12-20T03:05:28;100327.25;;;4.79;100.00
14612;BME280;7392;52.078;11.650;2023-12-20T03:07:56;100327.19;;;4.76;100.00
14612;BME280;7392;52.078;11.650;2023-12-20T03:10:24;100324.53;;;4.74;100.00
14612;BME280;7392;52.078;11.650;2023-12-20T03:12:54;100319.28;;;4.74;100.00
14612;BME280;7392;52.078;11.650;2023-12-20T03:15:22;100322.72;;;4.70;100.00
14612;BME280;7392;52.078;11.650;2023-12-20T03:17:49;100330.59;;;4.68;100.00
14612;BME280;7392;52.078;11.650;2023-12-20T03:20:18;100336.69;;;4.66;100.00
14612;BME280;7392;52.078;11.650;2023-12-20T03:22:46;100331.41;;;4.63;100.00
14612;BME280;7392;52.078;11.650;2023-12-20T03:25:13;100336.63;;;4.61;100.00
14612;BME280;7392;52.078;11.650;2023-12-20T03:27:41;100334.00;;;4.61;100.00
14612;BME280;7392;52.078;11.650;2023-12-20T03:30:12;100328.69;;;4.58;100.00
14612;BME280;7392;52.078;11.650;2023-12-20T03:32:39;100317.25;;;4.56;100.00
14612;BME280;7392;52.078;11.650;2023-12-20T03:35:07;100311.13;;;4.57;100.00
14612;BME280;7392;52.078;11.650;2023-12-20T03:37:35;100311.06;;;4.54;100.00
14612;BME280;7392;52.078;11.650;2023-12-20T03:40:04;100324.19;;;4.51;100.00
14612;BME280;7392;52.078;11.650;2023-12-20T03:42:32;100326.78;;;4.48;100.00
14612;BME280;7392;52.078;11.650;2023-12-20T03:44:59;100317.03;;;4.44;100.00
14612;BME280;7392;52.078;11.650;2023-12-20T03:47:28;100324.91;;;4.41;100.00
14612;BME280;7392;52.078;11.650;2023-12-20T03:49:56;100329.22;;;4.39;100.00
14612;BME280;7392;52.078;11.650;2023-12-20T03:52:24;100324.81;;;4.36;100.00
14612;BME280;7392;52.078;11.650;2023-12-20T03:54:52;100319.44;;;4.30;100.00
14612;BME280;7392;52.078;11.650;2023-12-20T03:57:21;100313.28;;;4.28;100.00
14612;BME280;7392;52.078;11.650;2023-12-20T03:59:48;100319.41;;;4.25;100.00
14612;BME280;7392;52.078;11.650;2023-12-20T04:02:16;100311.44;;;4.21;100.00
14612;BME280;7392;52.078;11.650;2023-12-20T04:04:46;100316.59;;;4.16;100.00
14612;BME280;7392;52.078;11.650;2023-12-20T04:07:14;100312.19;;;4.14;100.00
14612;BME280;7392;52.078;11.650;2023-12-20T04:09:42;100310.34;;;4.09;100.00
14612;BME280;7392;52.078;11.650;2023-12-20T04:12:10;100310.28;;;4.05;100.00
14612;BME280;7392;52.078;11.650;2023-12-20T04:14:38;100324.25;;;4.02;100.00
14612;BME280;7392;52.078;11.650;2023-12-20T04:17:05;100331.16;;;3.97;100.00
14612;BME280;7392;52.078;11.650;2023-12-20T04:19:33;100323.22;;;3.94;100.00
14612;BME280;7392;52.078;11.650;2023-12-20T04:22:03;100320.50;;;3.88;100.00
14612;BME280;7392;52.078;11.650;2023-12-20T04:24:31;100321.28;;;3.84;100.00
14612;BME280;7392;52.078;11.650;2023-12-20T04:26:59;100319.44;;;3.78;100.00
14612;BME280;7392;52.078;11.650;2023-12-20T04:29:26;100327.22;;;3.73;100.00
14612;BME280;7392;52.078;11.650;2023-12-20T04:31:54;100325.44;;;3.71;100.00
14612;BME280;7392;52.078;11.650;2023-12-20T04:34:22;100320.94;;;3.65;100.00
14612;BME280;7392;52.078;11.650;2023-12-20T04:36:50;100324.38;;;3.61;100.00
14612;BME280;7392;52.078;11.650;2023-12-20T04:39:19;100319.91;;;3.57;100.00
14612;BME280;7392;52.078;11.650;2023-12-20T04:41:48;100321.59;;;3.55;100.00
14612;BME280;7392;52.078;11.650;2023-12-20T04:44:16;100321.56;;;3.52;100.00
14612;BME280;7392;52.078;11.650;2023-12-20T04:46:44;100322.31;;;3.46;100.00
14612;BME280;7392;52.078;11.650;2023-12-20T04:49:12;100331.03;;;3.44;100.00
14612;BME280;7392;52.078;11.650;2023-12-20T04:51:42;100326.59;;;3.41;100.00
14612;BME280;7392;52.078;11.650;2023-12-20T04:54:10;100330.06;;;3.39;100.00
14612;BME280;7392;52.078;11.650;2023-12-20T04:56:39;100330.81;;;3.34;100.00
14612;BME280;7392;52.078;11.650;2023-12-20T04:59:07;100336.97;;;3.35;100.00
14612;BME280;7392;52.078;11.650;2023-12-20T05:01:34;100336.91;;;3.32;100.00
14612;BME280;7392;52.078;11.650;2023-12-20T05:04:03;100333.38;;;3.30;100.00
14612;BME280;7392;52.078;11.650;2023-12-20T05:06:31;100323.69;;;3.27;100.00
14612;BME280;7392;52.078;11.650;2023-12-20T05:08:59;100313.16;;;3.26;100.00
14612;BME280;7392;52.078;11.650;2023-12-20T05:11:27;100309.63;;;3.24;100.00
14612;BME280;7392;52.078;11.650;2023-12-20T05:14:00;100306.03;;;3.20;100.00
14612;BME280;7392;52.078;11.650;2023-12-20T05:16:29;100307.72;;;3.16;100.00
14612;BME280;7392;52.078;11.650;2023-12-20T05:18:56;100303.25;;;3.12;100.00
14612;BME280;7392;52.078;11.650;2023-12-20T05:21:27;100304.03;;;3.08;100.00
14612;BME280;7392;52.078;11.650;2023-12-20T05:23:54;100305.69;;;3.03;100.00
14612;BME280;7392;52.078;11.650;2023-12-20T05:26:22;100300.38;;;3.00;100.00
14612;BME280;7392;52.078;11.650;2023-12-20T05:28:50;100294.13;;;2.95;100.00
14612;BME280;7392;52.078;11.650;2023-12-20T05:31:21;100307.22;;;2.93;100.00
14612;BME280;7392;52.078;11.650;2023-12-20T05:33:49;100309.78;;;2.92;100.00
14612;BME280;7392;52.078;11.650;2023-12-20T05:36:18;100304.50;;;2.90;100.00
14612;BME280;7392;52.078;11.650;2023-12-20T05:38:46;100295.78;;;2.90;100.00
14612;BME280;7392;52.078;11.650;2023-12-20T05:41:14;100293.94;;;2.86;100.00
14612;BME280;7392;52.078;11.650;2023-12-20T05:43:42;100299.25;;;2.89;100.00
14612;BME280;7392;52.078;11.650;2023-12-20T05:46:10;100287.81;;;2.87;100.00
14612;BME280;7392;52.078;11.650;2023-12-20T05:48:40;100296.59;;;2.87;100.00
14612;BME280;7392;52.078;11.650;2023-12-20T05:51:11;100293.97;;;2.87;100.00
14612;BME280;7392;52.078;11.650;2023-12-20T05:53:41;100291.44;;;2.92;100.00
14612;BME280;7392;52.078;11.650;2023-12-20T05:56:08;100281.00;;;2.95;100.00
14612;BME280;7392;52.078;11.650;2023-12-20T05:58:38;100285.41;;;2.96;100.00
14612;BME280;7392;52.078;11.650;2023-12-20T06:01:06;100275.81;;;2.96;100.00
14612;BME280;7392;52.078;11.650;2023-12-20T06:04:02;100280.22;;;2.97;100.00
14612;BME280;7392;52.078;11.650;2023-12-20T06:06:30;100280.25;;;2.99;100.00
14612;BME280;7392;52.078;11.650;2023-12-20T06:08:58;100273.28;;;3.01;100.00
14612;BME280;7392;52.078;11.650;2023-12-20T06:11:26;100268.91;;;3.02;100.00
14612;BME280;7392;52.078;11.650;2023-12-20T06:13:54;100270.69;;;3.03;100.00
14612;BME280;7392;52.078;11.650;2023-12-20T06:16:22;100269.00;;;3.06;100.00
14612;BME280;7392;52.078;11.650;2023-12-20T06:18:49;100271.63;;;3.06;100.00
14612;BME280;7392;52.078;11.650;2023-12-20T06:21:19;100269.09;;;3.11;100.00
14612;BME280;7392;52.078;11.650;2023-12-20T06:23:47;100264.81;;;3.14;100.00
14612;BME280;7392;52.078;11.650;2023-12-20T06:26:15;100272.72;;;3.17;100.00
14612;BME280;7392;52.078;11.650;2023-12-20T06:28:45;100268.47;;;3.23;100.00
14612;BME280;7392;52.078;11.650;2023-12-20T06:31:12;100269.41;;;3.26;100.00
14612;BME280;7392;52.078;11.650;2023-12-20T06:33:40;100268.66;;;3.32;100.00
14612;BME280;7392;52.078;11.650;2023-12-20T06:36:11;100264.38;;;3.37;100.00
14612;BME280;7392;52.078;11.650;2023-12-20T06:38:40;100261.81;;;3.40;100.00
14612;BME280;7392;52.078;11.650;2023-12-20T06:41:10;100268.03;;;3.45;100.00
14612;BME280;7392;52.078;11.650;2023-12-20T06:43:41;100254.06;;;3.48;100.00
14612;BME280;7392;52.078;11.650;2023-12-20T06:46:16;100261.97;;;3.49;100.00
14612;BME280;7392;52.078;11.650;2023-12-20T06:48:47;100259.38;;;3.51;100.00
14612;BME280;7392;52.078;11.650;2023-12-20T06:51:17;100255.06;;;3.54;100.00
14612;BME280;7392;52.078;11.650;2023-12-20T06:53:48;100249.00;;;3.59;100.00
14612;BME280;7392;52.078;11.650;2023-12-20T06:56:18;100247.31;;;3.61;100.00
14612;BME280;7392;52.078;11.650;2023-12-20T06:58:47;100256.06;;;3.61;100.00
14612;BME280;7392;52.078;11.650;2023-12-20T07:01:16;100249.13;;;3.65;100.00
14612;BME280;7392;52.078;11.650;2023-12-20T07:03:44;100234.25;;;3.65;100.00
14612;BME280;7392;52.078;11.650;2023-12-20T07:06:12;100254.44;;;3.68;100.00
14612;BME280;7392;52.078;11.650;2023-12-20T07:08:42;100249.19;;;3.68;100.00
14612;BME280;7392;52.078;11.650;2023-12-20T07:11:11;100263.31;;;3.73;100.00
14612;BME280;7392;52.078;11.650;2023-12-20T07:13:39;100269.50;;;3.77;100.00
14612;BME280;7392;52.078;11.650;2023-12-20T07:16:06;100276.53;;;3.79;100.00
14612;BME280;7392;52.078;11.650;2023-12-20T07:18:34;100270.47;;;3.83;100.00
14612;BME280;7392;52.078;11.650;2023-12-20T07:21:04;100262.69;;;3.88;100.00
14612;BME280;7392;52.078;11.650;2023-12-20T07:23:34;100265.31;;;3.88;100.00
14612;BME280;7392;52.078;11.650;2023-12-20T07:26:03;100272.34;;;3.90;100.00
14612;BME280;7392;52.078;11.650;2023-12-20T07:28:33;100262.75;;;3.92;100.00
14612;BME280;7392;52.078;11.650;2023-12-20T07:31:03;100261.94;;;3.95;100.00
14612;BME280;7392;52.078;11.650;2023-12-20T07:33:32;100261.97;;;3.97;100.00
14612;BME280;7392;52.078;11.650;2023-12-20T07:36:06;100265.53;;;4.00;100.00
14612;BME280;7392;52.078;11.650;2023-12-20T07:38:35;100268.22;;;4.03;100.00
14612;BME280;7392;52.078;11.650;2023-12-20T07:41:04;100278.78;;;4.08;100.00
14612;BME280;7392;52.078;11.650;2023-12-20T07:43:34;100282.34;;;4.10;100.00
14612;BME280;7392;52.078;11.650;2023-12-20T07:46:06;100284.22;;;4.19;100.00
14612;BME280;7392;52.078;11.650;2023-12-20T07:48:36;100278.97;;;4.19;100.00
14612;BME280;7392;52.078;11.650;2023-12-20T07:51:05;100282.50;;;4.21;100.00
14612;BME280;7392;52.078;11.650;2023-12-20T07:53:34;100287.78;;;4.22;100.00
14612;BME280;7392;52.078;11.650;2023-12-20T07:56:02;100285.25;;;4.28;100.00
14612;BME280;7392;52.078;11.650;2023-12-20T07:58:29;100286.19;;;4.30;100.00
14612;BME280;7392;52.078;11.650;2023-12-20T08:01:17;100278.31;;;4.34;100.00
14612;BME280;7392;52.078;11.650;2023-12-20T08:03:45;100281.81;;;4.33;100.00
14612;BME280;7392;52.078;11.650;2023-12-20T08:06:14;100283.63;;;4.37;100.00
14612;BME280;7392;52.078;11.650;2023-12-20T08:08:43;100288.03;;;4.38;100.00
14612;BME280;7392;52.078;11.650;2023-12-20T08:11:18;100273.13;;;4.38;100.00
14612;BME280;7392;52.078;11.650;2023-12-20T08:13:46;100270.53;;;4.40;100.00
14612;BME280;7392;52.078;11.650;2023-12-20T08:16:14;100280.19;;;4.39;100.00
14612;BME280;7392;52.078;11.650;2023-12-20T08:18:45;100272.31;;;4.41;100.00
14612;BME280;7392;52.078;11.650;2023-12-20T08:21:13;100267.94;;;4.41;100.00
14612;BME280;7392;52.078;11.650;2023-12-20T08:23:41;100274.09;;;4.43;100.00
14612;BME280;7392;52.078;11.650;2023-12-20T08:26:09;100266.19;;;4.42;100.00
14612;BME280;7392;52.078;11.650;2023-12-20T08:28:37;100264.44;;;4.44;100.00
14612;BME280;7392;52.078;11.650;2023-12-20T08:31:05;100268.84;;;4.45;100.00
14612;BME280;7392;52.078;11.650;2023-12-20T08:33:33;100264.50;;;4.47;100.00
14612;BME280;7392;52.078;11.650;2023-12-20T08:36:03;100272.47;;;4.52;100.00
14612;BME280;7392;52.078;11.650;2023-12-20T08:38:32;100260.22;;;4.54;100.00
14612;BME280;7392;52.078;11.650;2023-12-20T08:40:59;100263.78;;;4.57;100.00
14612;BME280;7392;52.078;11.650;2023-12-20T08:43:27;100263.00;;;4.64;100.00
14612;BME280;7392;52.078;11.650;2023-12-20T08:45:55;100251.59;;;4.64;100.00
14612;BME280;7392;52.078;11.650;2023-12-20T08:48:23;100261.31;;;4.69;100.00
14612;BME280;7392;52.078;11.650;2023-12-20T08:50:51;100255.25;;;4.74;100.00
14612;BME280;7392;52.078;11.650;2023-12-20T08:53:20;100251.81;;;4.79;100.00
14612;BME280;7392;52.078;11.650;2023-12-20T08:55:48;100243.13;;;4.86;100.00
14612;BME280;7392;52.078;11.650;2023-12-20T08:58:17;100238.78;;;4.89;100.00
14612;BME280;7392;52.078;11.650;2023-12-20T09:00:45;100243.25;;;4.94;100.00
14612;BME280;7392;52.078;11.650;2023-12-20T09:03:14;100233.59;;;4.95;100.00
14612;BME280;7392;52.078;11.650;2023-12-20T09:05:42;100241.56;;;4.99;100.00
14612;BME280;7392;52.078;11.650;2023-12-20T09:08:10;100241.63;;;5.04;100.00
14612;BME280;7392;52.078;11.650;2023-12-20T09:10:40;100242.53;;;5.08;100.00
14612;BME280;7392;52.078;11.650;2023-12-20T09:13:07;100241.66;;;5.10;100.00
14612;BME280;7392;52.078;11.650;2023-12-20T09:15:35;100235.56;;;5.13;100.00
14612;BME280;7392;52.078;11.650;2023-12-20T09:18:03;100238.25;;;5.17;100.00
14612;BME280;7392;52.078;11.650;2023-12-20T09:20:33;100226.91;;;5.21;100.00
14612;BME280;7392;52.078;11.650;2023-12-20T09:23:01;100233.94;;;5.25;100.00
14612;BME280;7392;52.078;11.650;2023-12-20T09:25:29;100238.38;;;5.27;100.00
14612;BME280;7392;52.078;11.650;2023-12-20T09:27:59;100232.22;;;5.28;100.00
14612;BME280;7392;52.078;11.650;2023-12-20T09:30:26;100238.44;;;5.31;100.00
14612;BME280;7392;52.078;11.650;2023-12-20T09:32:55;100225.31;;;5.37;100.00
14612;BME280;7392;52.078;11.650;2023-12-20T09:35:23;100230.56;;;5.36;100.00
14612;BME280;7392;52.078;11.650;2023-12-20T09:37:53;100219.16;;;5.37;100.00
14612;BME280;7392;52.078;11.650;2023-12-20T09:40:22;100212.13;;;5.37;100.00
14612;BME280;7392;52.078;11.650;2023-12-20T09:42:57;100213.09;;;5.46;100.00
14612;BME280;7392;52.078;11.650;2023-12-20T09:45:27;100210.56;;;5.56;100.00
14612;BME280;7392;52.078;11.650;2023-12-20T09:47:55;100221.16;;;5.61;100.00
14612;BME280;7392;52.078;11.650;2023-12-20T09:50:24;100206.34;;;5.71;100.00
14612;BME280;7392;52.078;11.650;2023-12-20T09:52:53;100204.63;;;5.77;100.00
14612;BME280;7392;52.078;11.650;2023-12-20T09:55:24;100183.66;;;5.90;100.00
14612;BME280;7392;52.078;11.650;2023-12-20T09:57:53;100194.34;;;6.04;100.00
14612;BME280;7392;52.078;11.650;2023-12-20T10:00:21;100195.31;;;6.15;100.00
14612;BME280;7392;52.078;11.650;2023-12-20T10:02:56;100187.47;;;6.29;100.00
14612;BME280;7392;52.078;11.650;2023-12-20T10:05:27;100188.44;;;6.43;100.00
14612;BME280;7392;52.078;11.650;2023-12-20T10:08:01;100192.03;;;6.53;100.00
14612;BME280;7392;52.078;11.650;2023-12-20T10:10:30;100178.84;;;6.62;100.00
14612;BME280;7392;52.078;11.650;2023-12-20T10:13:11;100167.47;;;6.68;100.00
14612;BME280;7392;52.078;11.650;2023-12-20T10:15:42;100166.63;;;6.78;100.00
14612;BME280;7392;52.078;11.650;2023-12-20T10:18:12;100162.22;;;6.76;100.00
14612;BME280;7392;52.078;11.650;2023-12-20T10:20:41;100149.03;;;6.79;100.00
14612;BME280;7392;52.078;11.650;2023-12-20T10:23:10;100154.34;;;6.83;100.00
14612;BME280;7392;52.078;11.650;2023-12-20T10:25:39;100150.81;;;6.84;100.00
14612;BME280;7392;52.078;11.650;2023-12-20T10:28:09;100137.59;;;6.78;100.00
14612;BME280;7392;52.078;11.650;2023-12-20T10:30:38;100146.34;;;6.72;100.00
14612;BME280;7392;52.078;11.650;2023-12-20T10:33:06;100147.25;;;6.70;100.00
14612;BME280;7392;52.078;11.650;2023-12-20T10:35:37;100148.09;;;6.67;100.00
14612;BME280;7392;52.078;11.650;2023-12-20T10:38:11;100131.34;;;6.61;100.00
14612;BME280;7392;52.078;11.650;2023-12-20T10:40:40;100143.63;;;6.54;100.00
14612;BME280;7392;52.078;11.650;2023-12-20T10:43:08;100132.16;;;6.47;100.00
14612;BME280;7392;52.078;11.650;2023-12-20T10:45:36;100133.03;;;6.42;100.00
14612;BME280;7392;52.078;11.650;2023-12-20T10:48:05;100129.50;;;6.38;100.00
14612;BME280;7392;52.078;11.650;2023-12-20T10:50:37;100118.91;;;6.35;100.00
14612;BME280;7392;52.078;11.650;2023-12-20T10:53:06;100108.38;;;6.30;100.00
14612;BME280;7392;52.078;11.650;2023-12-20T10:55:34;100105.72;;;6.27;100.00
14612;BME280;7392;52.078;11.650;2023-12-20T10:58:07;100115.38;;;6.25;100.00
14612;BME280;7392;52.078;11.650;2023-12-20T11:00:36;100111.81;;;6.23;100.00
14612;BME280;7392;52.078;11.650;2023-12-20T11:03:08;100099.53;;;6.22;100.00
14612;BME280;7392;52.078;11.650;2023-12-20T11:05:43;100102.16;;;6.19;100.00
14612;BME280;7392;52.078;11.650;2023-12-20T11:08:21;100099.50;;;6.17;100.00
14612;BME280;7392;52.078;11.650;2023-12-20T11:11:04;100084.59;;;6.23;100.00
14612;BME280;7392;52.078;11.650;2023-12-20T11:13:36;100090.72;;;6.18;100.00
14612;BME280;7392;52.078;11.650;2023-12-20T11:16:05;100085.44;;;6.15;100.00
14612;BME280;7392;52.078;11.650;2023-12-20T11:18:34;100083.66;;;6.16;100.00
14612;BME280;7392;52.078;11.650;2023-12-20T11:21:04;100065.22;;;6.16;100.00
14612;BME280;7392;52.078;11.650;2023-12-20T11:23:32;100073.19;;;6.25;100.00
14612;BME280;7392;52.078;11.650;2023-12-20T11:26:02;100055.63;;;6.29;100.00
14612;BME280;7392;52.078;11.650;2023-12-20T11:28:30;100061.75;;;6.26;100.00
14612;BME280;7392;52.078;11.650;2023-12-20T11:31:00;100053.81;;;6.26;100.00
14612;BME280;7392;52.078;11.650;2023-12-20T11:33:32;100072.28;;;6.28;100.00
14612;BME280;7392;52.078;11.650;2023-12-20T11:36:12;100049.44;;;6.28;100.00
14612;BME280;7392;52.078;11.650;2023-12-20T11:38:54;100055.63;;;6.29;100.00
14612;BME280;7392;52.078;11.650;2023-12-20T11:41:24;100050.34;;;6.27;100.00
14612;BME280;7392;52.078;11.650;2023-12-20T11:43:53;100050.34;;;6.27;100.00
14612;BME280;7392;52.078;11.650;2023-12-20T11:46:21;100062.63;;;6.28;100.00
14612;BME280;7392;52.078;11.650;2023-12-20T11:48:50;100047.69;;;6.27;100.00
14612;BME280;7392;52.078;11.650;2023-12-20T11:51:20;100052.97;;;6.32;100.00
14612;BME280;7392;52.078;11.650;2023-12-20T11:53:51;100038.03;;;6.31;100.00
14612;BME280;7392;52.078;11.650;2023-12-20T11:56:19;100031.88;;;6.35;100.00
14612;BME280;7392;52.078;11.650;2023-12-20T11:58:47;100036.31;;;6.38;100.00
14612;BME280;7392;52.078;11.650;2023-12-20T12:01:17;100021.34;;;6.40;100.00
14612;BME280;7392;52.078;11.650;2023-12-20T12:03:45;100027.53;;;6.48;100.00
14612;BME280;7392;52.078;11.650;2023-12-20T12:06:13;100023.13;;;6.45;100.00
14612;BME280;7392;52.078;11.650;2023-12-20T12:08:42;100020.50;;;6.50;100.00
14612;BME280;7392;52.078;11.650;2023-12-20T12:11:10;100020.53;;;6.51;100.00
14612;BME280;7392;52.078;11.650;2023-12-20T12:13:38;100009.97;;;6.53;100.00
14612;BME280;7392;52.078;11.650;2023-12-20T12:16:05;100008.19;;;6.50;100.00
14612;BME280;7392;52.078;11.650;2023-12-20T12:18:33;100003.81;;;6.51;100.00
14612;BME280;7392;52.078;11.650;2023-12-20T12:21:02;99998.53;;;6.51;100.00
14612;BME280;7392;52.078;11.650;2023-12-20T12:23:39;99996.75;;;6.50;100.00
14612;BME280;7392;52.078;11.650;2023-12-20T12:26:08;99998.53;;;6.49;100.00
14612;BME280;7392;52.078;11.650;2023-12-20T12:28:35;99997.66;;;6.53;100.00
14612;BME280;7392;52.078;11.650;2023-12-20T12:31:03;100008.19;;;6.49;100.00
14612;BME280;7392;52.078;11.650;2023-12-20T12:33:31;100011.72;;;6.51;100.00
14612;BME280;7392;52.078;11.650;2023-12-20T12:35:59;100001.16;;;6.48;100.00
14612;BME280;7392;52.078;11.650;2023-12-20T12:38:27;100005.56;;;6.46;100.00
14612;BME280;7392;52.078;11.650;2023-12-20T12:40:55;99987.94;;;6.40;100.00
14612;BME280;7392;52.078;11.650;2023-12-20T12:43:24;99994.09;;;6.39;100.00
14612;BME280;7392;52.078;11.650;2023-12-20T12:45:53;99984.44;;;6.41;100.00
14612;BME280;7392;52.078;11.650;2023-12-20T12:48:22;99979.16;;;6.40;100.00
14612;BME280;7392;52.078;11.650;2023-12-20T12:50:50;99982.66;;;6.35;100.00
14612;BME280;7392;52.078;11.650;2023-12-20T12:53:18;99987.91;;;6.31;100.00
14612;BME280;7392;52.078;11.650;2023-12-20T12:55:46;99990.56;;;6.29;100.00
14612;BME280;7392;52.078;11.650;2023-12-20T12:58:14;99985.25;;;6.28;100.00
14612;BME280;7392;52.078;11.650;2023-12-20T13:00:43;100004.59;;;6.27;100.00
14612;BME280;7392;52.078;11.650;2023-12-20T13:03:11;99996.69;;;6.24;100.00
14612;BME280;7392;52.078;11.650;2023-12-20T13:05:39;100001.94;;;6.21;100.00